Pawtucket, Rhode Island
Current Conditions -  °F | °C
As of 2:35 PM on Friday 21 Nov 2014 (Local Time) from KSFZ Reporting Station
Few Clouds Few Clouds  
Wind Chill: 24°   Ceiling: Unl
Heat Index: 34°   Visibility: 10mi
Dew Point:   Wind: 16mph
Humidity: 32%   Direction: 310°NW
Pressure: 30.17"   Gusts: 23mph
Location:  41.88°N, 71.38°W
Report Text: KSFZ 211935Z 31014G20KT 10SM FEW060 01/M14 A3017 RMK AO1
Loading
Personal Weather Stations






























Interactive Weather Map New forecast layout! Learn more

10-Day Weather Forecast

Advertisements
Track Severe Weather on mobile